Sukran S — TCKB — position and weather

sailwx.info

Track history (hours):
 
Tides and Currents Weather Stations Pressure Air Temp Water Temp Dewpoint Dewpoint Depression Visibility Wind Speed Wind Dir Waves Ship Positions

Sukran S

Last reported at 2016-May-26 16:31 UTC. Time now 2016-May-29 07:40 UTC.
Position N 40°37' E 028°47'.

Length 108 m; draft 6.7 m.

Type: Cargo ship. MMSI: 271000056.

Date/timePositionNaut miles runAvg speedWind from/ knotsBaromVisibWave heightAir tempDewpointWater temp
2016-May-26 16:31N 40°37' E 028°47'1110.0
2016-May-26 15:26N 40°47' E 028°52'300 6.7
2016-May-24 18:31N 45°36' E 030°42'9 8.9
2016-May-24 17:33N 45°45' E 030°45'9 9.2
2016-May-24 16:34N 45°53' E 030°49'9 9.3
2016-May-24 15:33N 46°03' E 030°51'9 9.1
2016-May-24 14:34N 46°12' E 030°53'9 9.0
2016-May-24 13:33N 46°20' E 030°55'9 9.1
2016-May-24 12:34N 46°30' E 030°55'8 8.0
2016-May-24 11:34N 46°34' E 031°04'10 9.7
2016-May-24 10:33N 46°35' E 031°19'9 9.0
2016-May-24 09:33N 46°35' E 031°32'10 9.5
2016-May-24 08:33N 46°36' E 031°45'9 8.8
2016-May-24 07:34N 46°41' E 031°56'9 8.6
2016-May-24 06:33N 46°49' E 031°55'2 2.0
2016-May-24 05:34N 46°50' E 031°57'0 0.0
2016-May-24 04:33N 46°50' E 031°57'0 0.0
2016-May-24 03:33N 46°50' E 031°57'0 0.0
2016-May-24 02:32N 46°50' E 031°57'0 0.0
2016-May-24 01:31N 46°50' E 031°57'0 0.0
2016-May-24 00:31N 46°50' E 031°57'0 0.0
2016-May-23 23:31N 46°50' E 031°57'0 0.0
2016-May-23 22:32N 46°50' E 031°57'0 0.0
2016-May-23 21:26N 46°50' E 031°57'0 0.0
2016-May-23 20:28N 46°50' E 031°57'0 0.0
2016-May-23 19:31N 46°50' E 031°57'0 0.0
2016-May-23 18:31N 46°50' E 031°57'0 0.0
2016-May-23 17:34N 46°50' E 031°57'0 0.0
2016-May-23 16:33N 46°50' E 031°57'0 0.0
2016-May-23 15:33N 46°50' E 031°57'0 0.0
2016-May-23 14:32N 46°50' E 031°57'0 0.0
2016-May-23 13:32N 46°50' E 031°57'0 0.0
2016-May-23 12:31N 46°50' E 031°57'0 0.0
2016-May-23 11:33N 46°50' E 031°57'0 0.0
2016-May-23 10:33N 46°50' E 031°57'0 0.0
2016-May-23 09:32N 46°50' E 031°57'0 0.0
2016-May-23 08:32N 46°50' E 031°57'0 0.0
2016-May-23 07:33N 46°50' E 031°57'0 0.1
2016-May-23 06:33N 46°50' E 031°57'5 4.6
2016-May-23 05:33N 46°46' E 031°53'9 9.0
2016-May-23 04:33N 46°37' E 031°53'1010.3
2016-May-23 03:33N 46°35' E 031°38'9 9.2
2016-May-23 02:33N 46°35' E 031°25'1110.6
2016-May-23 01:33N 46°35' E 031°09'9 8.6
2016-May-23 00:33N 46°32' E 030°57'8 7.7
2016-May-22 23:33N 46°25' E 030°57'8 8.5
2016-May-22 22:33N 46°16' E 030°58'9 9.0
2016-May-22 21:33N 46°07' E 030°56'10 9.8
2016-May-22 20:33N 45°58' E 030°52'307 9.8
2016-May-21 13:11N 41°02' E 028°60'5 7.6
2016-May-21 12:33N 40°57' E 028°58'2 1.1
2016-May-21 10:23N 40°58' E 028°55'0 0.0
2016-May-20 17:21N 40°58' E 028°55'4 5.3
2016-May-20 16:33N 40°54' E 028°59'1110.7
2016-May-20 15:33N 40°48' E 029°11'1010.3
2016-May-20 14:32N 40°44' E 029°23'  
2016-May-17 04:33N 40°43' E 029°18'9 8.9
2016-May-17 03:33N 40°42' E 029°06'  
Track history (hours):
 
Tides and Currents Weather Stations Pressure Air Temp Water Temp Dewpoint Dewpoint Depression Visibility Wind Speed Wind Dir Waves Ship Positions

Sukran S

Last reported at 2016-May-26 16:31 UTC. Time now 2016-May-29 07:40 UTC.
Position N 40°37' E 028°47'.

Length 108 m; draft 6.7 m.

Type: Cargo ship. MMSI: 271000056.

Date/timePositionNaut miles runAvg speedWind from/ knotsBaromVisibWave heightAir tempDewpointWater temp
2016-May-26 16:31N 40°37' E 028°47'1110.0
2016-May-26 15:26N 40°47' E 028°52'300 6.7
2016-May-24 18:31N 45°36' E 030°42'9 8.9
2016-May-24 17:33N 45°45' E 030°45'9 9.2
2016-May-24 16:34N 45°53' E 030°49'9 9.3
2016-May-24 15:33N 46°03' E 030°51'9 9.1
2016-May-24 14:34N 46°12' E 030°53'9 9.0
2016-May-24 13:33N 46°20' E 030°55'9 9.1
2016-May-24 12:34N 46°30' E 030°55'8 8.0
2016-May-24 11:34N 46°34' E 031°04'10 9.7
2016-May-24 10:33N 46°35' E 031°19'9 9.0
2016-May-24 09:33N 46°35' E 031°32'10 9.5
2016-May-24 08:33N 46°36' E 031°45'9 8.8
2016-May-24 07:34N 46°41' E 031°56'9 8.6
2016-May-24 06:33N 46°49' E 031°55'2 2.0
2016-May-24 05:34N 46°50' E 031°57'0 0.0
2016-May-24 04:33N 46°50' E 031°57'0 0.0
2016-May-24 03:33N 46°50' E 031°57'0 0.0
2016-May-24 02:32N 46°50' E 031°57'0 0.0
2016-May-24 01:31N 46°50' E 031°57'0 0.0
2016-May-24 00:31N 46°50' E 031°57'0 0.0
2016-May-23 23:31N 46°50' E 031°57'0 0.0
2016-May-23 22:32N 46°50' E 031°57'0 0.0
2016-May-23 21:26N 46°50' E 031°57'0 0.0
2016-May-23 20:28N 46°50' E 031°57'0 0.0
2016-May-23 19:31N 46°50' E 031°57'0 0.0
2016-May-23 18:31N 46°50' E 031°57'0 0.0
2016-May-23 17:34N 46°50' E 031°57'0 0.0
2016-May-23 16:33N 46°50' E 031°57'0 0.0
2016-May-23 15:33N 46°50' E 031°57'0 0.0
2016-May-23 14:32N 46°50' E 031°57'0 0.0
2016-May-23 13:32N 46°50' E 031°57'0 0.0
2016-May-23 12:31N 46°50' E 031°57'0 0.0
2016-May-23 11:33N 46°50' E 031°57'0 0.0
2016-May-23 10:33N 46°50' E 031°57'0 0.0
2016-May-23 09:32N 46°50' E 031°57'0 0.0
2016-May-23 08:32N 46°50' E 031°57'0 0.0
2016-May-23 07:33N 46°50' E 031°57'0 0.1
2016-May-23 06:33N 46°50' E 031°57'5 4.6
2016-May-23 05:33N 46°46' E 031°53'9 9.0
2016-May-23 04:33N 46°37' E 031°53'1010.3
2016-May-23 03:33N 46°35' E 031°38'9 9.2
2016-May-23 02:33N 46°35' E 031°25'1110.6
2016-May-23 01:33N 46°35' E 031°09'9 8.6
2016-May-23 00:33N 46°32' E 030°57'8 7.7
2016-May-22 23:33N 46°25' E 030°57'8 8.5
2016-May-22 22:33N 46°16' E 030°58'9 9.0
2016-May-22 21:33N 46°07' E 030°56'10 9.8
2016-May-22 20:33N 45°58' E 030°52'307 9.8
2016-May-21 13:11N 41°02' E 028°60'5 7.6
2016-May-21 12:33N 40°57' E 028°58'2 1.1
2016-May-21 10:23N 40°58' E 028°55'0 0.0
2016-May-20 17:21N 40°58' E 028°55'4 5.3
2016-May-20 16:33N 40°54' E 028°59'1110.7
2016-May-20 15:33N 40°48' E 029°11'1010.3
2016-May-20 14:32N 40°44' E 029°23'  
2016-May-17 04:33N 40°43' E 029°18'9 8.9
2016-May-17 03:33N 40°42' E 029°06'  

Dump ship's entire track history